createdAt,value
2022-08-31T00:00:09.606Z,73.44
2022-08-31T00:02:54.966Z,73.69
2022-08-31T00:05:23.314Z,73.52
2022-08-31T00:07:51.703Z,73.74
2022-08-31T00:10:31.739Z,73.64
2022-08-31T00:13:07.076Z,73.59
2022-08-31T00:15:35.791Z,73.78
2022-08-31T00:18:03.921Z,73.72
2022-08-31T00:20:33.859Z,73.43
2022-08-31T00:23:02.998Z,73.22
2022-08-31T00:25:31.275Z,73.19
2022-08-31T00:27:58.997Z,73.10
2022-08-31T00:30:28.368Z,72.96
2022-08-31T00:32:58.166Z,73.02
2022-08-31T00:35:27.600Z,72.86
2022-08-31T00:37:55.364Z,72.79
2022-08-31T00:40:23.594Z,72.66
2022-08-31T00:42:51.828Z,72.48
2022-08-31T00:45:20.001Z,72.54
2022-08-31T00:47:49.503Z,72.38
2022-08-31T00:50:19.089Z,72.23
2022-08-31T00:52:52.047Z,71.62
2022-08-31T00:55:22.766Z,71.55
2022-08-31T00:57:54.200Z,71.39
2022-08-31T01:00:27.213Z,71.22
2022-08-31T01:02:57.324Z,70.92
2022-08-31T01:05:25.465Z,70.48
2022-08-31T01:07:54.297Z,70.53
2022-08-31T01:10:24.632Z,70.78
2022-08-31T01:12:54.725Z,70.22
2022-08-31T01:15:24.852Z,70.42
2022-08-31T01:17:55.165Z,70.16
2022-08-31T01:20:30.053Z,70.10
2022-08-31T01:23:10.778Z,69.99
2022-08-31T01:25:40.440Z,69.88
2022-08-31T01:28:10.104Z,69.98
2022-08-31T01:30:40.732Z,69.79
2022-08-31T01:33:11.364Z,70.03
2022-08-31T01:35:40.299Z,69.97
2022-08-31T01:38:10.883Z,70.04
2022-08-31T01:40:47.531Z,69.72
2022-08-31T01:43:15.244Z,69.92
2022-08-31T01:45:42.990Z,69.77
2022-08-31T01:48:10.819Z,69.76
2022-08-31T01:50:38.877Z,69.77
2022-08-31T01:53:06.756Z,69.86
2022-08-31T01:55:36.580Z,69.78
2022-08-31T01:58:05.157Z,69.89
2022-08-31T02:00:52.022Z,69.63
2022-08-31T02:03:19.952Z,69.62
2022-08-31T02:05:47.943Z,69.80
2022-08-31T02:08:15.710Z,69.88
2022-08-31T02:10:45.819Z,69.59
2022-08-31T02:13:14.469Z,69.45
2022-08-31T02:15:42.301Z,69.72
2022-08-31T02:18:10.034Z,69.76
2022-08-31T02:20:40.283Z,69.73
2022-08-31T02:23:08.036Z,69.75
2022-08-31T02:25:35.860Z,69.76
2022-08-31T02:28:06.307Z,69.85
2022-08-31T02:30:34.660Z,69.92
2022-08-31T02:33:02.688Z,69.91
2022-08-31T02:35:30.557Z,69.74
2022-08-31T02:37:58.304Z,69.74
2022-08-31T02:40:26.508Z,69.81
2022-08-31T02:42:55.078Z,69.87
2022-08-31T02:45:28.084Z,69.94
2022-08-31T02:48:02.680Z,70.00
2022-08-31T02:50:40.043Z,70.19
2022-08-31T02:53:08.487Z,70.20
2022-08-31T02:55:36.641Z,70.26
2022-08-31T02:58:05.434Z,70.28
2022-08-31T03:00:35.048Z,70.29
2022-08-31T03:03:03.540Z,70.38
2022-08-31T03:05:31.933Z,70.25
2022-08-31T03:07:59.860Z,70.39
2022-08-31T03:10:27.908Z,70.50
2022-08-31T03:12:56.733Z,70.52
2022-08-31T03:15:26.927Z,70.48
2022-08-31T03:17:56.088Z,70.49
2022-08-31T03:20:27.115Z,70.45
2022-08-31T03:22:55.444Z,70.56
2022-08-31T03:25:24.307Z,70.57
2022-08-31T03:27:52.423Z,70.70
2022-08-31T03:30:22.524Z,70.78
2022-08-31T03:33:02.984Z,70.84
2022-08-31T03:35:33.604Z,71.05
2022-08-31T03:38:03.366Z,70.96
2022-08-31T03:40:31.678Z,70.93
2022-08-31T03:42:59.513Z,70.98
2022-08-31T03:45:28.915Z,71.33
2022-08-31T03:47:57.183Z,71.07
2022-08-31T03:50:27.969Z,71.40
2022-08-31T03:53:05.141Z,71.45
2022-08-31T03:55:33.695Z,71.52
2022-08-31T03:58:01.988Z,71.49
2022-08-31T04:00:31.561Z,71.86
2022-08-31T04:03:04.332Z,71.78
2022-08-31T04:05:36.024Z,71.56
2022-08-31T04:08:22.977Z,71.78
2022-08-31T04:11:12.333Z,72.11
2022-08-31T04:13:58.505Z,72.26
2022-08-31T04:16:46.248Z,72.13
2022-08-31T04:19:38.049Z,72.46
2022-08-31T04:22:27.672Z,72.29
2022-08-31T04:25:18.186Z,72.75
2022-08-31T04:27:50.304Z,72.53
2022-08-31T04:30:20.885Z,72.72
2022-08-31T04:32:48.711Z,73.05
2022-08-31T04:35:17.195Z,72.97
2022-08-31T04:37:47.098Z,73.19
2022-08-31T04:40:19.705Z,73.25
2022-08-31T04:42:48.722Z,73.49
2022-08-31T04:45:18.920Z,73.74
2022-08-31T04:47:46.701Z,73.89
2022-08-31T04:50:16.515Z,74.00
2022-08-31T04:53:09.550Z,74.00
2022-08-31T04:55:41.028Z,74.20
2022-08-31T04:58:10.340Z,74.60
2022-08-31T05:00:38.409Z,74.73
2022-08-31T05:03:24.517Z,74.48
2022-08-31T05:05:56.845Z,74.77
2022-08-31T05:08:26.069Z,75.28
2022-08-31T05:10:54.992Z,75.02
2022-08-31T05:13:22.708Z,75.25
2022-08-31T05:15:54.678Z,75.37
2022-08-31T05:18:22.880Z,75.49
2022-08-31T05:20:56.703Z,75.66
2022-08-31T05:23:25.967Z,75.92
2022-08-31T05:25:53.668Z,75.93
2022-08-31T05:28:23.519Z,76.20
2022-08-31T05:30:51.480Z,76.40
2022-08-31T05:33:36.791Z,76.41
2022-08-31T05:36:05.801Z,76.40
2022-08-31T05:38:35.820Z,76.67
2022-08-31T05:41:06.044Z,76.88
2022-08-31T05:43:35.002Z,76.83
2022-08-31T05:46:06.701Z,77.17
2022-08-31T05:48:38.101Z,77.05
2022-08-31T05:51:12.271Z,77.10
2022-08-31T05:53:43.069Z,77.32
2022-08-31T05:56:14.734Z,77.43
2022-08-31T05:58:46.277Z,77.66
2022-08-31T06:01:16.361Z,77.71
2022-08-31T06:04:04.917Z,77.53
2022-08-31T06:06:33.245Z,77.91
2022-08-31T06:09:02.257Z,77.82
2022-08-31T06:11:34.190Z,77.98
2022-08-31T06:14:04.203Z,78.06
2022-08-31T06:16:33.399Z,78.08
2022-08-31T06:19:03.367Z,78.55
2022-08-31T06:21:34.479Z,78.63
2022-08-31T06:24:06.320Z,78.71
2022-08-31T06:26:37.022Z,78.87
2022-08-31T06:29:09.846Z,78.85
2022-08-31T06:31:47.041Z,79.42
2022-08-31T06:34:19.985Z,79.60
2022-08-31T06:37:06.464Z,79.83
2022-08-31T06:39:54.763Z,80.04
2022-08-31T06:42:39.665Z,79.72
2022-08-31T06:45:26.664Z,78.83
2022-08-31T06:48:00.704Z,78.14
2022-08-31T06:50:28.838Z,77.55
2022-08-31T06:52:57.213Z,77.16
2022-08-31T06:55:45.325Z,76.93
2022-08-31T06:58:31.496Z,76.18
2022-08-31T07:01:26.350Z,76.55
2022-08-31T07:04:22.175Z,75.85
2022-08-31T07:06:49.970Z,75.84
2022-08-31T07:09:18.447Z,75.75
2022-08-31T07:11:50.093Z,75.57
2022-08-31T07:14:21.912Z,75.49
2022-08-31T07:16:51.756Z,75.65
2022-08-31T07:19:20.369Z,75.47
2022-08-31T07:21:49.861Z,75.49
2022-08-31T07:24:23.056Z,75.41
2022-08-31T07:26:55.106Z,75.21
2022-08-31T07:29:32.985Z,75.04
2022-08-31T07:32:00.928Z,75.10
2022-08-31T07:34:33.460Z,75.24
2022-08-31T07:37:37.057Z,75.36
2022-08-31T07:40:24.303Z,74.70
2022-08-31T07:42:55.202Z,74.93
2022-08-31T07:45:29.429Z,74.79
2022-08-31T07:48:01.018Z,74.61
2022-08-31T07:50:46.711Z,74.76
2022-08-31T07:53:43.119Z,74.19
2022-08-31T07:56:34.185Z,73.87
2022-08-31T07:59:15.091Z,73.53
2022-08-31T08:01:45.488Z,73.91
2022-08-31T08:04:18.450Z,73.56
2022-08-31T08:07:21.656Z,72.81
2022-08-31T08:09:55.114Z,72.05
2022-08-31T08:12:41.731Z,71.68
2022-08-31T08:15:17.337Z,71.76
2022-08-31T08:18:15.157Z,71.38
2022-08-31T08:20:49.314Z,71.69
2022-08-31T08:23:25.863Z,71.54
2022-08-31T08:26:21.064Z,70.83
2022-08-31T08:29:08.962Z,71.48
2022-08-31T08:31:52.232Z,71.49
2022-08-31T08:34:21.303Z,70.94
2022-08-31T08:36:57.746Z,71.13
2022-08-31T08:39:25.442Z,71.12
2022-08-31T08:42:03.956Z,71.02
2022-08-31T08:44:34.113Z,71.83
2022-08-31T08:47:06.545Z,72.16
2022-08-31T08:49:48.813Z,71.61
2022-08-31T08:52:26.828Z,71.25
2022-08-31T08:54:57.412Z,69.71
2022-08-31T08:57:28.247Z,69.58
2022-08-31T09:00:04.147Z,68.01
2022-08-31T09:02:38.883Z,66.36
2022-08-31T09:05:45.519Z,66.25
2022-08-31T09:08:54.723Z,66.33
2022-08-31T09:11:29.380Z,65.64
2022-08-31T09:14:06.272Z,64.91
2022-08-31T09:16:44.647Z,64.51
2022-08-31T09:19:17.105Z,64.79
2022-08-31T09:21:47.140Z,63.57
2022-08-31T09:24:20.076Z,63.46
2022-08-31T09:27:17.837Z,63.39
2022-08-31T09:29:47.213Z,63.70
2022-08-31T09:32:23.079Z,62.89
2022-08-31T09:35:01.087Z,63.14
2022-08-31T09:37:33.245Z,62.33
2022-08-31T09:40:16.835Z,61.37
2022-08-31T09:43:03.981Z,60.40
2022-08-31T09:45:38.763Z,60.69
2022-08-31T09:48:10.397Z,60.81
2022-08-31T09:50:45.002Z,60.77
2022-08-31T09:53:34.769Z,60.83
2022-08-31T09:56:14.378Z,60.08
2022-08-31T09:58:51.704Z,58.63
2022-08-31T10:01:25.625Z,59.00
2022-08-31T10:04:09.884Z,59.76
2022-08-31T10:06:47.133Z,59.01
2022-08-31T10:09:28.724Z,59.07
2022-08-31T10:12:01.726Z,59.37
2022-08-31T10:14:36.782Z,58.34
2022-08-31T10:17:13.032Z,57.16
2022-08-31T10:19:52.945Z,57.25
2022-08-31T10:22:30.616Z,58.36
2022-08-31T10:25:07.089Z,57.61
2022-08-31T10:27:42.299Z,56.90
2022-08-31T10:30:27.476Z,56.67
2022-08-31T10:33:01.896Z,57.47
2022-08-31T10:35:36.318Z,56.72
2022-08-31T10:38:21.103Z,57.44
2022-08-31T10:40:52.367Z,55.96
2022-08-31T10:43:23.747Z,55.92
2022-08-31T10:45:54.308Z,56.37
2022-08-31T10:48:24.565Z,56.43
2022-08-31T10:51:09.145Z,56.48
2022-08-31T10:53:55.825Z,56.62
2022-08-31T10:56:37.269Z,56.50
2022-08-31T10:59:14.991Z,56.01
2022-08-31T11:01:52.547Z,55.67
2022-08-31T11:04:42.468Z,55.76
2022-08-31T11:07:20.341Z,55.39
2022-08-31T11:09:57.726Z,55.50
2022-08-31T11:12:30.697Z,56.30
2022-08-31T11:15:25.587Z,57.18
2022-08-31T11:18:15.304Z,56.79
2022-08-31T11:21:04.568Z,56.16
2022-08-31T11:23:43.813Z,55.67
2022-08-31T11:26:42.020Z,55.93
2022-08-31T11:29:24.121Z,55.88
2022-08-31T11:31:55.064Z,55.64
2022-08-31T11:34:26.649Z,55.66
2022-08-31T11:36:56.630Z,56.32
2022-08-31T11:39:36.858Z,55.72
2022-08-31T11:42:12.332Z,54.25
2022-08-31T11:45:02.188Z,54.49
2022-08-31T11:47:37.176Z,54.81
2022-08-31T11:50:11.716Z,54.98
2022-08-31T11:52:45.187Z,54.94
2022-08-31T11:55:23.775Z,54.58
2022-08-31T11:58:21.328Z,54.71
2022-08-31T12:00:59.172Z,54.67
2022-08-31T12:03:42.058Z,54.33
2022-08-31T12:06:12.917Z,54.43
2022-08-31T12:08:52.230Z,54.74
2022-08-31T12:11:31.794Z,54.75
2022-08-31T12:14:09.368Z,54.28
2022-08-31T12:16:57.765Z,53.43
2022-08-31T12:20:01.343Z,53.49
2022-08-31T12:23:11.711Z,53.14
2022-08-31T12:26:00.604Z,52.31
2022-08-31T12:28:39.426Z,52.63
2022-08-31T12:31:14.853Z,52.81
2022-08-31T12:33:50.743Z,52.62
2022-08-31T12:36:20.870Z,53.27
2022-08-31T12:39:06.192Z,52.55
2022-08-31T12:41:34.891Z,52.50
2022-08-31T12:44:03.890Z,52.37
2022-08-31T12:46:45.895Z,52.20
2022-08-31T12:49:21.687Z,52.16
2022-08-31T12:51:52.471Z,51.84
2022-08-31T12:54:42.580Z,51.59
2022-08-31T12:57:25.767Z,51.24
2022-08-31T13:00:04.260Z,51.08
2022-08-31T13:02:36.480Z,50.92
2022-08-31T13:05:05.341Z,50.53
2022-08-31T13:07:35.822Z,50.36
2022-08-31T13:10:07.143Z,50.74
2022-08-31T13:12:35.517Z,50.24
2022-08-31T13:15:03.407Z,50.45
2022-08-31T13:17:38.046Z,50.00
2022-08-31T13:20:08.678Z,49.86
2022-08-31T13:22:41.170Z,50.08
2022-08-31T13:25:16.641Z,49.61
2022-08-31T13:27:49.572Z,49.65
2022-08-31T13:30:22.374Z,49.20
2022-08-31T13:32:55.348Z,49.71
2022-08-31T13:35:26.980Z,49.94
2022-08-31T13:38:05.076Z,50.02
2022-08-31T13:40:37.194Z,49.53
2022-08-31T13:43:06.978Z,48.76
2022-08-31T13:45:40.483Z,48.95
2022-08-31T13:48:15.931Z,49.06
2022-08-31T13:50:52.595Z,48.75
2022-08-31T13:53:37.954Z,48.14
2022-08-31T13:56:42.947Z,48.26
2022-08-31T13:59:17.582Z,47.87
2022-08-31T14:01:48.449Z,47.94
2022-08-31T14:04:43.696Z,47.72
2022-08-31T14:07:21.472Z,47.16
2022-08-31T14:09:52.459Z,47.06
2022-08-31T14:12:34.851Z,46.07
2022-08-31T14:15:19.772Z,46.18
2022-08-31T14:21:09.979Z,45.19
2022-08-31T14:23:35.321Z,44.83
2022-08-31T14:26:06.716Z,44.65
2022-08-31T14:28:38.648Z,44.59
2022-08-31T14:31:15.356Z,45.00
2022-08-31T14:33:44.502Z,45.21
2022-08-31T14:36:16.295Z,45.09
2022-08-31T14:38:46.039Z,44.67
2022-08-31T14:41:20.500Z,44.75
2022-08-31T14:43:48.587Z,44.05
2022-08-31T14:46:26.145Z,44.36
2022-08-31T14:48:53.901Z,43.54
2022-08-31T14:51:23.980Z,43.69
2022-08-31T14:53:56.899Z,43.44
2022-08-31T14:56:30.466Z,43.70
2022-08-31T14:58:59.596Z,43.68
2022-08-31T15:01:30.037Z,44.09
2022-08-31T15:03:58.137Z,43.19
2022-08-31T15:06:27.515Z,43.73
2022-08-31T15:08:55.555Z,43.76
2022-08-31T15:11:24.076Z,43.36
2022-08-31T15:13:53.397Z,44.07
2022-08-31T15:16:24.004Z,43.48
2022-08-31T15:18:56.050Z,43.34
2022-08-31T15:21:25.601Z,43.48
2022-08-31T15:23:54.964Z,43.30
2022-08-31T15:26:23.008Z,42.85
2022-08-31T15:28:52.629Z,43.34
2022-08-31T15:31:23.583Z,43.96
2022-08-31T15:33:55.248Z,44.24
2022-08-31T15:36:27.022Z,44.15
2022-08-31T15:38:58.940Z,44.33
2022-08-31T15:41:29.027Z,44.13
2022-08-31T15:43:56.995Z,43.96
2022-08-31T15:46:38.614Z,43.90
2022-08-31T15:49:07.179Z,43.98
2022-08-31T15:51:35.398Z,43.53
2022-08-31T15:54:21.069Z,44.31
2022-08-31T15:56:49.906Z,43.67
2022-08-31T15:59:17.852Z,43.95
2022-08-31T16:01:45.754Z,44.00
2022-08-31T16:04:16.248Z,43.97
2022-08-31T16:06:44.513Z,43.87
2022-08-31T16:09:13.828Z,43.54
2022-08-31T16:11:42.633Z,43.35
2022-08-31T16:14:11.953Z,43.24
2022-08-31T16:16:43.837Z,43.03
2022-08-31T16:19:27.719Z,42.66
2022-08-31T16:22:02.938Z,42.99
2022-08-31T16:24:36.069Z,43.33
2022-08-31T16:27:08.081Z,43.08
2022-08-31T16:29:37.018Z,43.30
2022-08-31T16:32:06.696Z,43.11
2022-08-31T16:34:34.796Z,43.42
2022-08-31T16:37:07.279Z,43.13
2022-08-31T16:39:38.455Z,42.77
2022-08-31T16:42:07.992Z,42.71
2022-08-31T16:44:37.254Z,42.58
2022-08-31T16:47:06.725Z,42.60
2022-08-31T16:49:34.508Z,42.85
2022-08-31T16:52:03.461Z,42.68
2022-08-31T16:54:32.418Z,42.79
2022-08-31T16:57:02.249Z,42.56
2022-08-31T16:59:30.902Z,42.82
2022-08-31T17:01:58.769Z,42.65
2022-08-31T17:04:51.108Z,42.80
2022-08-31T17:07:16.866Z,42.70
2022-08-31T17:09:45.959Z,43.16
2022-08-31T17:12:21.677Z,42.81
2022-08-31T17:14:52.761Z,42.84
2022-08-31T17:17:24.121Z,42.97
2022-08-31T17:19:54.113Z,42.91
2022-08-31T17:22:30.050Z,43.01
2022-08-31T17:25:02.990Z,42.44
2022-08-31T17:27:34.642Z,42.64
2022-08-31T17:30:06.098Z,42.53
2022-08-31T17:32:37.299Z,42.65
2022-08-31T17:35:08.990Z,42.65
2022-08-31T17:37:37.090Z,42.60
2022-08-31T17:40:08.185Z,42.75
2022-08-31T17:42:37.581Z,42.97
2022-08-31T17:45:06.696Z,42.95
2022-08-31T17:47:35.909Z,43.08
2022-08-31T17:50:04.421Z,43.49
2022-08-31T17:52:32.475Z,43.43
2022-08-31T17:55:01.902Z,43.74
2022-08-31T17:57:29.716Z,43.72
2022-08-31T17:59:58.996Z,43.91
2022-08-31T18:02:32.667Z,44.02
2022-08-31T18:05:00.995Z,44.22
2022-08-31T18:07:29.374Z,44.32
2022-08-31T18:09:57.916Z,44.67
2022-08-31T18:12:27.430Z,44.62
2022-08-31T18:14:58.021Z,45.04
2022-08-31T18:17:27.567Z,45.26
2022-08-31T18:19:55.770Z,45.47
2022-08-31T18:22:24.504Z,45.22
2022-08-31T18:24:52.542Z,45.75
2022-08-31T18:27:21.192Z,46.02
2022-08-31T18:29:49.041Z,46.42
2022-08-31T18:32:18.811Z,46.54
2022-08-31T18:34:52.057Z,46.80
2022-08-31T18:37:25.902Z,46.85
2022-08-31T18:40:11.811Z,46.76
2022-08-31T18:42:57.328Z,46.78
2022-08-31T18:45:25.575Z,46.86
2022-08-31T18:50:48.417Z,47.70
2022-08-31T18:53:29.015Z,47.82
2022-08-31T18:56:00.806Z,48.08
2022-08-31T18:58:30.274Z,48.18
2022-08-31T19:00:59.441Z,48.36
2022-08-31T19:03:28.403Z,48.23
2022-08-31T19:05:58.723Z,48.48
2022-08-31T19:08:27.784Z,48.75
2022-08-31T19:10:58.166Z,48.94
2022-08-31T19:13:31.570Z,49.21
2022-08-31T19:16:02.298Z,49.18
2022-08-31T19:18:34.495Z,49.36
2022-08-31T19:21:13.998Z,49.46
2022-08-31T19:23:43.577Z,49.60
2022-08-31T19:26:12.032Z,49.72
2022-08-31T19:28:40.927Z,49.91
2022-08-31T19:31:11.785Z,49.78
2022-08-31T19:33:40.024Z,49.75
2022-08-31T19:36:08.448Z,49.56
2022-08-31T19:38:40.861Z,49.84
2022-08-31T19:41:16.041Z,50.14
2022-08-31T19:43:52.213Z,50.24
2022-08-31T19:46:26.311Z,50.83
2022-08-31T19:48:55.059Z,50.93
2022-08-31T19:51:24.457Z,50.92
2022-08-31T19:53:55.103Z,51.18
2022-08-31T19:56:24.929Z,51.13
2022-08-31T19:58:56.505Z,51.31
2022-08-31T20:01:28.229Z,51.62
2022-08-31T20:03:57.506Z,51.60
2022-08-31T20:06:26.368Z,52.00
2022-08-31T20:08:56.213Z,51.90
2022-08-31T20:11:26.496Z,52.02
2022-08-31T20:13:57.677Z,52.45
2022-08-31T20:16:33.583Z,52.68
2022-08-31T20:19:04.717Z,52.59
2022-08-31T20:21:34.996Z,52.84
2022-08-31T20:24:08.320Z,52.75
2022-08-31T20:26:47.472Z,52.79
2022-08-31T20:29:21.317Z,52.73
2022-08-31T20:31:51.316Z,52.69
2022-08-31T20:34:21.948Z,53.06
2022-08-31T20:36:52.296Z,53.33
2022-08-31T20:39:23.360Z,53.60
2022-08-31T20:41:53.063Z,53.47
2022-08-31T20:44:23.513Z,53.53
2022-08-31T20:47:12.269Z,53.51
2022-08-31T20:49:41.790Z,53.67
2022-08-31T20:52:11.587Z,53.43
2022-08-31T20:54:42.939Z,53.71
2022-08-31T20:57:11.726Z,53.60
2022-08-31T20:59:39.435Z,53.59
2022-08-31T21:02:08.770Z,53.61
2022-08-31T21:04:39.169Z,53.73
2022-08-31T21:07:08.308Z,53.73
2022-08-31T21:09:36.000Z,53.91
2022-08-31T21:12:07.092Z,53.78
2022-08-31T21:14:36.605Z,53.71
2022-08-31T21:17:06.070Z,53.71
2022-08-31T21:19:36.118Z,53.45
2022-08-31T21:22:05.282Z,53.52
2022-08-31T21:24:36.074Z,53.48
2022-08-31T21:27:06.751Z,53.42
2022-08-31T21:29:35.453Z,53.58
2022-08-31T21:32:05.037Z,53.88
2022-08-31T21:34:33.037Z,53.61
2022-08-31T21:37:00.937Z,53.94
2022-08-31T21:39:28.785Z,53.72
2022-08-31T21:41:56.549Z,53.91
2022-08-31T21:44:25.794Z,53.94
2022-08-31T21:46:53.693Z,54.35
2022-08-31T21:49:21.789Z,54.30
2022-08-31T21:51:52.177Z,54.13
2022-08-31T21:54:22.989Z,54.36
2022-08-31T21:56:53.581Z,54.03
2022-08-31T21:59:23.938Z,54.29
2022-08-31T22:01:59.025Z,54.33
2022-08-31T22:04:27.128Z,54.38
2022-08-31T22:06:55.911Z,54.35
2022-08-31T22:09:24.792Z,54.47
2022-08-31T22:11:56.393Z,54.35
2022-08-31T22:14:28.740Z,54.26
2022-08-31T22:16:59.363Z,54.36
2022-08-31T22:19:28.466Z,54.76
2022-08-31T22:21:59.128Z,54.85
2022-08-31T22:24:29.545Z,54.87
2022-08-31T22:26:59.333Z,54.62
2022-08-31T22:29:31.156Z,55.03
2022-08-31T22:32:03.817Z,54.90
2022-08-31T22:34:31.531Z,55.06
2022-08-31T22:36:59.372Z,55.45
2022-08-31T22:39:29.947Z,55.47
2022-08-31T22:41:59.176Z,55.45
2022-08-31T22:44:29.297Z,55.61
2022-08-31T22:46:57.243Z,55.57
2022-08-31T22:49:27.031Z,55.51
2022-08-31T22:51:56.878Z,55.37
2022-08-31T22:54:26.004Z,55.88
2022-08-31T22:56:54.708Z,56.00
2022-08-31T22:59:27.265Z,56.16
2022-08-31T23:01:59.153Z,56.13
2022-08-31T23:04:29.169Z,56.15
2022-08-31T23:06:59.829Z,56.32
2022-08-31T23:09:30.966Z,56.10
2022-08-31T23:12:00.850Z,56.20
2022-08-31T23:14:32.098Z,56.41
2022-08-31T23:17:01.481Z,56.47
2022-08-31T23:19:36.518Z,56.56
2022-08-31T23:22:07.547Z,56.74
2022-08-31T23:24:41.321Z,56.84
2022-08-31T23:27:10.381Z,57.07
2022-08-31T23:29:40.958Z,57.16
2022-08-31T23:32:11.116Z,57.38
2022-08-31T23:34:41.923Z,57.81
2022-08-31T23:37:11.072Z,57.60
2022-08-31T23:39:43.357Z,57.56
2022-08-31T23:42:13.056Z,57.67
2022-08-31T23:44:42.899Z,57.87
2022-08-31T23:47:13.588Z,58.05
2022-08-31T23:49:43.892Z,58.00
2022-08-31T23:52:18.272Z,58.15
2022-08-31T23:54:46.260Z,58.43
2022-08-31T23:57:32.103Z,58.58
